Time;durP1;ratioP1;P1;durP2;ratioP2;P2;SDS_P1;SDS_P2;PMS_P1;PMS_P2;Temp;Humidity;BMP_temperature;BMP_pressure;BME280_temperature;BME280_humidity;BME280_pressure;Samples;Min_cycle;Max_cycle;Signal;HPM_P1;HPM_P2
2022/01/07 01:00:19;;;;;;;1964.33;333.37;;;3.30;99.90;;;;;;5947735;24;20431;-82
2022/01/07 01:02:47;;;;;;;1992.73;206.57;;;3.20;99.90;;;;;;6079787;23;20549;-82
2022/01/07 01:05:16;;;;;;;1999.90;721.03;;;3.20;99.90;;;;;;6171903;23;20420;-82
2022/01/07 01:07:47;;;;;;;1999.90;410.73;;;3.20;99.90;;;;;;6197583;23;20426;-82
2022/01/07 01:10:18;;;;;;;1999.90;741.27;;;3.10;99.90;;;;;;6172956;23;20456;-82
2022/01/07 01:12:47;;;;;;;1657.73;184.17;;;3.10;99.90;;;;;;6197395;23;20448;-82
2022/01/07 01:15:21;;;;;;;1999.90;999.90;;;3.10;99.90;;;;;;6171980;23;20418;-82
2022/01/07 01:17:50;;;;;;;1999.90;999.90;;;3.10;99.90;;;;;;6172930;23;20421;-82
2022/01/07 01:20:18;;;;;;;1999.90;267.23;;;3.10;99.90;;;;;;6172489;23;20992;-82
2022/01/07 01:22:49;;;;;;;1999.90;509.73;;;3.10;99.90;;;;;;6172930;23;20982;-82
2022/01/07 01:25:17;;;;;;;1999.90;735.50;;;3.10;99.90;;;;;;6172479;23;20417;-83
2022/01/07 01:36:52;;;;;;;1999.90;513.50;;;3.00;99.90;;;;;;5971984;23;20515;-82
2022/01/07 01:39:20;;;;;;;1178.87;141.97;;;3.10;99.90;;;;;;6050816;23;20425;-82
2022/01/07 01:41:58;;;;;;;1999.90;999.90;;;3.10;99.90;;;;;;6083910;23;20952;-81
2022/01/07 01:44:26;;;;;;;1519.87;440.97;;;3.10;99.90;;;;;;6144193;23;20434;-82
2022/01/07 01:46:54;;;;;;;1999.90;999.90;;;3.10;99.90;;;;;;6202222;23;20414;-82
2022/01/07 01:49:33;;;;;;;;;;;;;;;;;;;;;
2022/01/07 01:52:37;;;;;;;1861.30;239.90;;;3.10;99.90;;;;;;6164488;23;20421;-82
2022/01/07 01:55:16;;;;;;;1249.03;132.53;;;3.10;99.90;;;;;;6195136;23;20473;-82
2022/01/07 01:57:45;;;;;;;1999.90;999.90;;;3.00;99.90;;;;;;6194926;23;20428;-82
2022/01/07 02:00:19;;;;;;;1999.90;314.07;;;3.00;99.90;;;;;;6202579;22;20410;-82
2022/01/07 03:41:15;;;;;;;1999.90;247.13;;;2.90;99.90;;;;;;5914713;24;20416;-80
2022/01/07 03:43:53;;;;;;;1999.90;370.23;;;2.90;99.90;;;;;;6119568;23;20429;-80
2022/01/07 03:46:23;;;;;;;1999.90;418.43;;;2.80;99.90;;;;;;6131757;23;20491;-80
2022/01/07 03:48:54;;;;;;;1999.90;589.43;;;2.80;99.90;;;;;;6122498;22;20936;-80
2022/01/07 03:51:25;;;;;;;1999.90;640.50;;;2.80;99.90;;;;;;6282072;22;20411;-80
2022/01/07 03:53:56;;;;;;;1999.90;460.33;;;2.80;99.90;;;;;;6282341;22;20441;-80
2022/01/07 03:56:26;;;;;;;1999.90;484.80;;;2.80;99.90;;;;;;6282702;22;20505;-80
2022/01/07 03:58:56;;;;;;;1999.90;578.33;;;2.80;99.90;;;;;;6294568;22;20388;-80
2022/01/07 04:01:27;;;;;;;1999.90;369.27;;;2.80;99.90;;;;;;6282682;22;20503;-80
2022/01/07 04:03:56;;;;;;;1999.90;359.73;;;2.80;99.90;;;;;;6281749;22;20559;-80
2022/01/07 04:06:28;;;;;;;1999.90;390.33;;;2.80;99.90;;;;;;6283825;22;20448;-79
2022/01/07 04:08:56;;;;;;;1999.90;511.77;;;2.80;99.90;;;;;;6281813;22;20418;-79
2022/01/07 04:11:26;;;;;;;1999.90;315.03;;;2.80;99.90;;;;;;6293611;22;20408;-79
2022/01/07 04:14:05;;;;;;;1999.90;710.50;;;2.80;99.90;;;;;;6280118;22;20437;-81
2022/01/07 04:16:35;;;;;;;1999.90;569.87;;;2.80;99.90;;;;;;6279656;22;20890;-81
2022/01/07 04:19:03;;;;;;;1999.90;631.00;;;2.80;99.90;;;;;;6279841;22;20413;-81
2022/01/07 04:21:31;;;;;;;1999.90;505.63;;;2.80;99.90;;;;;;6280954;22;20755;-81
2022/01/07 04:24:02;;;;;;;1999.90;523.80;;;2.80;99.90;;;;;;6280273;22;20446;-81
2022/01/07 04:26:32;;;;;;;1999.90;419.83;;;2.80;99.90;;;;;;6282375;22;20484;-81
2022/01/07 04:29:00;;;;;;;1999.90;514.57;;;2.80;99.90;;;;;;6280970;22;20902;-80
2022/01/07 04:31:31;;;;;;;1999.90;721.03;;;2.70;99.90;;;;;;6280095;22;20482;-81
2022/01/07 04:57:47;;;;;;;;;;;;;;;;;;;;;
2022/01/07 06:05:55;;;;;;;1999.90;431.70;;;3.00;99.90;;;;;;6089639;23;20444;-79
2022/01/07 06:11:08;;;;;;;1999.90;722.00;;;2.90;99.90;;;;;;6205161;23;20415;-82
2022/01/07 06:13:37;;;;;;;1999.90;779.93;;;2.90;99.90;;;;;;6207765;23;20437;-79
2022/01/07 06:16:06;;;;;;;1999.90;745.73;;;2.90;99.90;;;;;;6207867;23;20418;-79
2022/01/07 06:18:35;;;;;;;1999.90;687.40;;;2.90;99.90;;;;;;6207890;23;20421;-79
2022/01/07 06:21:07;;;;;;;1999.90;634.97;;;2.90;99.90;;;;;;6208911;23;20429;-81
2022/01/07 06:23:44;;;;;;;1999.90;328.67;;;2.90;99.90;;;;;;6207319;23;20438;-79
2022/01/07 06:26:18;;;;;;;1999.90;324.07;;;2.90;99.90;;;;;;6207891;23;20428;-79
2022/01/07 06:28:49;;;;;;;1999.90;309.97;;;2.90;99.90;;;;;;6207811;23;20460;-79
2022/01/07 06:31:21;;;;;;;1999.90;403.73;;;2.90;99.90;;;;;;6208722;23;20469;-79
2022/01/07 06:33:52;;;;;;;1999.90;399.53;;;2.90;99.90;;;;;;6204737;23;20746;-81
2022/01/07 06:36:22;;;;;;;1999.90;785.60;;;2.90;99.90;;;;;;6230288;23;20460;-82
2022/01/07 06:38:50;;;;;;;1999.90;762.77;;;2.90;99.90;;;;;;6202997;23;20414;-82
2022/01/07 06:41:21;;;;;;;1999.90;674.93;;;2.90;99.90;;;;;;6204035;23;20418;-81
2022/01/07 07:41:50;;;;;;;1999.90;499.50;;;2.90;99.90;;;;;;5903488;23;20780;-79
2022/01/07 07:44:30;;;;;;;;;;;;;;;;;;;;;
2022/01/07 07:47:53;;;;;;;1999.90;506.97;;;3.00;99.90;;;;;;5996374;23;20444;-79
2022/01/07 08:01:06;;;;;;;1999.90;471.93;;;3.00;99.90;;;;;;5886638;24;20420;-79
2022/01/07 08:03:35;;;;;;;1999.90;773.27;;;3.00;99.90;;;;;;6072169;23;20503;-79
2022/01/07 08:06:04;;;;;;;1999.90;699.80;;;3.00;99.90;;;;;;6144482;23;20420;-79
2022/01/07 08:08:32;;;;;;;1999.90;694.63;;;3.00;99.90;;;;;;6198024;23;20419;-80
2022/01/07 08:11:13;;;;;;;1999.90;617.23;;;3.00;99.90;;;;;;6197613;23;20409;-80
2022/01/07 08:16:42;;;;;;;1999.90;609.47;;;3.10;99.90;;;;;;6199758;23;20878;-81
2022/01/07 08:19:15;;;;;;;1999.90;675.77;;;3.10;99.90;;;;;;6199891;23;20417;-79
2022/01/07 08:21:45;;;;;;;1999.90;671.40;;;3.10;99.90;;;;;;6198764;23;20589;-79
2022/01/07 08:24:16;;;;;;;1999.90;701.97;;;3.10;99.90;;;;;;6199115;23;20434;-79
2022/01/07 08:26:51;;;;;;;1999.90;682.20;;;3.10;99.90;;;;;;6198205;23;20435;-79
2022/01/07 08:29:25;;;;;;;1999.90;659.17;;;3.10;99.90;;;;;;6197597;23;20459;-82
2022/01/07 08:34:54;;;;;;;1999.90;702.23;;;3.10;99.90;;;;;;6224791;23;20427;-79
2022/01/07 08:37:25;;;;;;;1999.90;999.90;;;3.20;99.90;;;;;;6235765;23;20374;-79
2022/01/07 08:40:12;;;;;;;;;;;;;;;;;;;;;
2022/01/07 08:43:46;;;;;;;;;;;;;;;;;;;;;
2022/01/07 08:56:59;;;;;;;1999.90;791.17;;;3.20;99.90;;;;;;5957367;24;20425;-79
2022/01/07 10:04:33;;;;;;;1999.90;999.90;;;3.80;99.90;;;;;;6202197;22;1361494;-80
2022/01/07 10:07:16;;;;;;;1999.90;999.90;;;3.80;99.90;;;;;;6202996;23;20657;-80
2022/01/07 10:10:02;;;;;;;1999.90;529.20;;;3.80;99.90;;;;;;6202660;23;20796;-79
2022/01/07 10:12:31;;;;;;;1999.90;999.90;;;3.80;99.90;;;;;;6202280;23;20438;-80
2022/01/07 10:15:13;;;;;;;1932.93;433.50;;;3.80;99.90;;;;;;6228908;23;20772;-80
2022/01/07 10:17:42;;;;;;;1999.90;442.50;;;3.80;99.90;;;;;;6202113;23;20463;-79
2022/01/07 10:20:17;;;;;;;1999.90;758.57;;;3.80;99.90;;;;;;6202494;23;20410;-80
2022/01/07 10:23:11;;;;;;;1999.90;526.47;;;3.80;99.90;;;;;;6225083;23;20445;-80
2022/01/07 10:25:42;;;;;;;1649.40;340.57;;;3.80;99.90;;;;;;6204000;23;20442;-80
2022/01/07 10:28:31;;;;;;;1995.93;388.63;;;3.90;99.90;;;;;;6203028;23;20467;-80
2022/01/07 10:31:02;;;;;;;1919.43;507.27;;;3.90;99.90;;;;;;6202952;23;20470;-80
2022/01/07 10:33:48;;;;;;;;;;;;;;;;;;;;;
2022/01/07 10:44:32;;;;;;;1999.90;624.00;;;4.00;99.90;;;;;;5882554;24;20533;-79
2022/01/07 10:47:10;;;;;;;1999.90;528.63;;;4.00;99.90;;;;;;5989319;24;20421;-80
2022/01/07 10:49:50;;;;;;;1970.90;397.23;;;4.10;99.90;;;;;;6026410;23;20427;-81
2022/01/07 10:52:24;;;;;;;1999.90;489.27;;;4.10;99.90;;;;;;6122406;23;20423;-80
2022/01/07 10:55:10;;;;;;;1912.40;402.83;;;4.10;99.90;;;;;;6194910;23;20406;-80
2022/01/07 10:57:41;;;;;;;1827.87;334.63;;;4.10;99.90;;;;;;6195894;23;20720;-79
2022/01/07 11:00:14;;;;;;;1767.67;349.93;;;4.10;99.90;;;;;;6197856;23;20436;-80
2022/01/07 11:02:44;;;;;;;1591.13;383.30;;;4.10;99.90;;;;;;6231719;23;20422;-80
2022/01/07 11:05:16;;;;;;;1147.37;230.80;;;4.10;99.90;;;;;;6213883;23;20411;-80
2022/01/07 11:07:46;;;;;;;1266.47;318.43;;;4.20;99.90;;;;;;6221064;23;20439;-80
2022/01/07 11:10:16;;;;;;;1518.10;344.07;;;4.20;99.90;;;;;;6224284;23;20453;-79
2022/01/07 11:12:47;;;;;;;1552.83;353.50;;;4.20;99.90;;;;;;6221239;23;20438;-80
2022/01/07 11:15:34;;;;;;;1218.13;255.07;;;4.20;99.90;;;;;;6220641;23;20410;-79
2022/01/07 11:18:05;;;;;;;851.30;228.53;;;4.20;99.90;;;;;;6220456;23;20410;-80
2022/01/07 11:20:38;;;;;;;1239.03;279.73;;;4.20;99.90;;;;;;6220756;23;20417;-80
2022/01/07 11:23:11;;;;;;;1279.10;312.50;;;4.30;99.90;;;;;;6220382;23;20509;-80
2022/01/07 11:33:32;;;;;;;1935.63;514.10;;;4.30;99.90;;;;;;5987832;23;20519;-80
2022/01/07 11:36:11;;;;;;;1999.90;497.53;;;4.40;99.90;;;;;;6167482;23;20508;-80
2022/01/07 11:38:46;;;;;;;1500.83;317.40;;;4.40;99.90;;;;;;6220114;23;20467;-80
2022/01/07 11:41:43;;;;;;;1805.00;374.30;;;4.40;99.90;;;;;;6220768;23;20501;-80
2022/01/07 11:44:13;;;;;;;1909.57;437.27;;;4.50;99.90;;;;;;6220621;23;20481;-80
2022/01/07 11:46:41;;;;;;;820.27;171.83;;;4.50;99.90;;;;;;6221361;23;20414;-80
2022/01/07 11:49:31;;;;;;;1188.30;228.50;;;4.50;99.90;;;;;;6221367;23;20423;-80
2022/01/07 11:52:31;;;;;;;1116.03;250.67;;;4.60;99.90;;;;;;6220644;23;20438;-80
2022/01/07 11:55:29;;;;;;;1866.30;418.83;;;4.60;99.90;;;;;;6220972;23;20457;-80
2022/01/07 11:58:01;;;;;;;1735.40;339.70;;;4.60;99.90;;;;;;6154236;23;20446;-80
2022/01/07 12:00:53;;;;;;;693.43;150.97;;;4.70;99.90;;;;;;6219574;23;20434;-79
2022/01/07 12:03:37;;;;;;;1688.73;339.47;;;4.70;99.90;;;;;;6219984;23;20450;-80
2022/01/07 12:06:44;;;;;;;1261.40;263.90;;;4.80;99.90;;;;;;6194830;23;20426;-80
2022/01/07 12:09:21;;;;;;;1445.27;280.83;;;4.80;99.90;;;;;;6196814;23;20418;-80
2022/01/07 12:11:55;;;;;;;1436.60;252.33;;;4.80;99.90;;;;;;6196569;23;20457;-81
2022/01/07 12:14:25;;;;;;;443.83;93.37;;;4.90;99.90;;;;;;6195879;23;20437;-80
2022/01/07 12:16:55;;;;;;;309.50;65.73;;;4.90;99.90;;;;;;6196027;23;20407;-80
2022/01/07 12:20:02;;;;;;;724.67;153.83;;;5.00;99.90;;;;;;6222940;23;20474;-80
2022/01/07 12:22:30;;;;;;;1643.13;341.07;;;5.00;99.90;;;;;;6195910;23;20430;-80
2022/01/07 12:25:03;;;;;;;281.77;80.83;;;5.10;99.90;;;;;;6196297;23;20897;-80
2022/01/07 12:27:32;;;;;;;270.67;65.67;;;5.10;99.90;;;;;;6196024;23;20424;-80
2022/01/07 12:30:02;;;;;;;949.37;205.60;;;5.10;99.90;;;;;;6195863;23;20753;-80
2022/01/07 12:32:36;;;;;;;896.23;193.73;;;5.10;99.90;;;;;;6224464;23;20438;-80
2022/01/07 12:35:06;;;;;;;307.90;59.80;;;5.20;99.90;;;;;;6195947;23;20495;-80
2022/01/07 12:37:35;;;;;;;314.33;63.70;;;5.20;99.90;;;;;;6195654;23;20422;-79
2022/01/07 12:40:07;;;;;;;305.17;65.43;;;5.20;99.90;;;;;;6196038;23;20499;-81
2022/01/07 12:42:42;;;;;;;284.10;58.07;;;5.30;99.90;;;;;;6222375;23;20717;-80
2022/01/07 12:45:16;;;;;;;284.30;54.40;;;5.30;99.90;;;;;;6195802;23;20822;-80
2022/01/07 12:47:45;;;;;;;256.07;51.00;;;5.30;99.90;;;;;;6195142;23;20441;-81
2022/01/07 12:50:14;;;;;;;453.43;66.63;;;5.30;99.90;;;;;;6195773;23;20410;-81
2022/01/07 12:52:43;;;;;;;256.70;51.77;;;5.40;99.90;;;;;;6195231;23;20430;-80
2022/01/07 12:55:16;;;;;;;245.10;43.13;;;5.40;99.90;;;;;;6195452;23;20446;-81
2022/01/07 12:57:46;;;;;;;290.13;66.33;;;5.50;99.90;;;;;;6195209;23;20414;-80
2022/01/07 13:00:21;;;;;;;203.73;37.53;;;5.40;99.90;;;;;;6195840;23;20413;-81
2022/01/07 13:02:51;;;;;;;207.83;49.47;;;5.40;99.90;;;;;;6195373;23;20464;-81
2022/01/07 13:05:22;;;;;;;205.97;51.33;;;5.50;99.90;;;;;;6215681;23;20431;-81
2022/01/07 13:07:52;;;;;;;348.43;74.70;;;5.50;99.90;;;;;;6232486;23;20399;-80
2022/01/07 13:10:25;;;;;;;382.30;64.93;;;5.50;99.90;;;;;;6221051;23;20418;-80
2022/01/07 13:12:55;;;;;;;310.97;53.57;;;5.50;99.90;;;;;;6219983;23;20473;-80
2022/01/07 13:15:38;;;;;;;280.47;72.90;;;5.40;99.90;;;;;;6219347;23;20417;-80
2022/01/07 13:18:26;;;;;;;222.23;43.37;;;5.50;99.90;;;;;;6219438;23;20403;-80
2022/01/07 13:20:57;;;;;;;334.97;66.83;;;5.50;99.90;;;;;;6220372;23;20403;-80
2022/01/07 13:23:26;;;;;;;286.03;66.50;;;5.50;99.90;;;;;;6219405;23;21024;-80
2022/01/07 13:25:59;;;;;;;241.70;48.87;;;5.40;99.90;;;;;;6219145;23;20452;-80
2022/01/07 13:28:36;;;;;;;269.37;56.17;;;5.50;99.90;;;;;;6219996;23;20465;-80
2022/01/07 13:31:05;;;;;;;334.90;70.13;;;5.50;99.90;;;;;;6222218;23;20390;-81
2022/01/07 13:33:35;;;;;;;256.23;58.73;;;5.50;99.90;;;;;;6218752;23;20446;-81
2022/01/07 13:36:23;;;;;;;244.53;49.10;;;5.50;99.90;;;;;;6219399;23;20403;-81
2022/01/07 13:38:59;;;;;;;337.40;76.70;;;5.50;99.90;;;;;;6218445;23;20423;-80
2022/01/07 13:41:31;;;;;;;324.27;50.13;;;5.50;99.90;;;;;;6221196;23;20410;-80
2022/01/07 13:44:05;;;;;;;271.67;47.07;;;5.50;99.90;;;;;;6225337;23;20439;-80
2022/01/07 13:46:37;;;;;;;308.17;61.87;;;5.50;99.90;;;;;;6225077;23;20433;-80
2022/01/07 13:49:08;;;;;;;290.90;53.37;;;5.50;99.90;;;;;;6222987;23;20434;-80
2022/01/07 13:51:37;;;;;;;359.80;66.77;;;5.50;99.90;;;;;;6222847;23;20415;-80
2022/01/07 13:54:16;;;;;;;392.60;67.47;;;5.50;99.90;;;;;;6221608;23;20960;-80
2022/01/07 13:56:47;;;;;;;465.60;65.30;;;5.50;99.90;;;;;;6224429;23;20414;-80
2022/01/07 13:59:15;;;;;;;318.53;53.07;;;5.50;99.90;;;;;;6220129;23;20405;-80
2022/01/07 14:01:56;;;;;;;177.37;44.93;;;5.50;99.90;;;;;;6219801;23;20407;-80
2022/01/07 14:04:45;;;;;;;386.00;78.67;;;5.50;99.90;;;;;;6218881;23;20563;-80
2022/01/07 14:07:24;;;;;;;675.17;131.20;;;5.50;99.90;;;;;;6224295;23;20445;-80
2022/01/07 14:10:14;;;;;;;484.13;78.17;;;5.50;99.90;;;;;;6233155;23;20422;-81
2022/01/07 14:12:50;;;;;;;420.80;89.57;;;5.40;99.90;;;;;;6222382;23;20419;-80
2022/01/07 14:15:20;;;;;;;416.80;94.57;;;5.40;99.90;;;;;;6222496;23;20433;-80
2022/01/07 14:17:49;;;;;;;354.30;54.30;;;5.40;99.90;;;;;;6223897;23;20411;-80
2022/01/07 14:20:18;;;;;;;174.87;37.30;;;5.40;99.90;;;;;;6219335;23;20461;-79
2022/01/07 14:22:46;;;;;;;647.07;122.57;;;5.40;99.90;;;;;;6218337;23;20403;-79
2022/01/07 14:25:17;;;;;;;280.17;50.87;;;5.40;99.90;;;;;;6218683;23;20485;-80
2022/01/07 14:27:46;;;;;;;437.13;77.13;;;5.40;99.90;;;;;;6231307;23;20379;-80
2022/01/07 14:30:17;;;;;;;747.60;138.73;;;5.30;99.90;;;;;;6223409;23;20415;-80
2022/01/07 14:32:46;;;;;;;518.83;115.10;;;5.30;99.90;;;;;;6228256;23;20445;-79
2022/01/07 14:35:15;;;;;;;420.10;91.70;;;5.30;99.90;;;;;;6227273;23;20398;-80
2022/01/07 14:37:43;;;;;;;693.37;114.40;;;5.20;99.90;;;;;;6227055;23;20410;-80
2022/01/07 14:40:12;;;;;;;397.07;74.60;;;5.20;99.90;;;;;;6228431;23;20433;-80
2022/01/07 14:42:40;;;;;;;1486.30;301.23;;;5.20;99.90;;;;;;6227237;23;20425;-80
2022/01/07 14:45:11;;;;;;;1079.73;188.57;;;5.10;99.90;;;;;;6225803;23;20534;-80
2022/01/07 14:47:43;;;;;;;736.33;130.53;;;5.00;99.90;;;;;;6225124;23;20410;-80
2022/01/07 14:50:11;;;;;;;1865.83;345.13;;;5.00;99.90;;;;;;6226040;23;20414;-80
2022/01/07 14:52:56;;;;;;;1999.90;435.30;;;5.00;99.90;;;;;;6226076;23;20434;-80
2022/01/07 14:55:26;;;;;;;1982.90;417.73;;;4.90;99.90;;;;;;6237587;23;20406;-80
2022/01/07 14:57:56;;;;;;;1963.67;451.70;;;4.80;99.90;;;;;;6224735;23;20410;-80
2022/01/07 15:00:24;;;;;;;1999.90;496.53;;;4.80;99.90;;;;;;6225878;23;20464;-80
2022/01/07 15:02:54;;;;;;;1703.93;351.27;;;4.80;99.90;;;;;;6224125;23;20731;-79
2022/01/07 15:05:23;;;;;;;1999.90;472.17;;;4.80;99.90;;;;;;6221443;23;20442;-79
2022/01/07 15:08:07;;;;;;;1999.90;436.47;;;4.70;99.90;;;;;;6223792;23;20501;-79
2022/01/07 15:10:36;;;;;;;1999.90;547.73;;;4.70;99.90;;;;;;6224190;23;20407;-79
2022/01/07 15:13:04;;;;;;;1999.90;592.30;;;4.60;99.90;;;;;;6225140;23;20427;-79
2022/01/07 15:18:20;;;;;;;1999.90;628.70;;;4.60;99.90;;;;;;6224303;23;20766;-80
2022/01/07 15:20:49;;;;;;;1999.90;403.67;;;4.50;99.90;;;;;;6222243;23;20476;-80
2022/01/07 15:23:17;;;;;;;1999.90;399.03;;;4.50;99.90;;;;;;6222041;23;20430;-79
2022/01/07 15:25:46;;;;;;;1999.90;652.10;;;4.40;99.90;;;;;;6233525;23;20450;-80
2022/01/07 15:28:15;;;;;;;1999.90;427.60;;;4.40;99.90;;;;;;6221408;23;20878;-80
2022/01/07 15:30:43;;;;;;;1999.90;688.87;;;4.40;99.90;;;;;;6221047;23;20813;-80
2022/01/07 15:33:11;;;;;;;1999.90;567.50;;;4.30;99.90;;;;;;6222548;23;20457;-81
2022/01/07 15:35:43;;;;;;;1999.90;634.03;;;4.30;99.90;;;;;;6221266;23;20476;-80
2022/01/07 15:38:15;;;;;;;1999.90;496.47;;;4.30;99.90;;;;;;6220520;23;20482;-80
2022/01/07 15:40:46;;;;;;;1999.90;491.47;;;4.20;99.90;;;;;;6221681;23;20885;-80
2022/01/07 15:43:14;;;;;;;1999.90;831.10;;;4.20;99.90;;;;;;6222342;23;20435;-80
2022/01/07 15:45:43;;;;;;;1999.90;552.40;;;4.20;99.90;;;;;;6221929;23;20750;-80
2022/01/07 15:48:12;;;;;;;1999.90;512.63;;;4.10;99.90;;;;;;6222469;23;20413;-80
2022/01/07 15:50:41;;;;;;;1999.90;520.83;;;4.10;99.90;;;;;;6234213;23;20399;-80
2022/01/07 15:53:10;;;;;;;1999.90;870.87;;;4.10;99.90;;;;;;6222580;23;20931;-79
2022/01/07 15:55:38;;;;;;;1999.90;555.33;;;4.00;99.90;;;;;;6222043;23;20417;-80
2022/01/07 15:58:06;;;;;;;1999.90;623.20;;;4.00;99.90;;;;;;6222422;23;20403;-80
2022/01/07 16:00:35;;;;;;;1999.90;604.77;;;4.00;99.90;;;;;;6220969;23;20920;-80
2022/01/07 16:03:04;;;;;;;1999.90;537.57;;;3.90;99.90;;;;;;6219970;23;20466;-80
2022/01/07 16:05:33;;;;;;;1999.90;686.13;;;3.90;99.90;;;;;;6232286;23;21002;-81
2022/01/07 16:08:02;;;;;;;1999.90;654.47;;;3.90;99.90;;;;;;6195311;23;20445;-81
2022/01/07 16:10:31;;;;;;;1999.90;899.03;;;3.90;99.90;;;;;;6196147;23;20929;-80
2022/01/07 16:12:59;;;;;;;1999.90;554.27;;;3.90;99.90;;;;;;6222566;23;20535;-80
2022/01/07 16:15:27;;;;;;;1999.90;691.33;;;3.80;99.90;;;;;;6195958;23;20414;-80
2022/01/07 16:17:57;;;;;;;1999.90;665.03;;;3.80;99.90;;;;;;6222386;23;20413;-80
2022/01/07 16:20:25;;;;;;;1999.90;662.97;;;3.80;99.90;;;;;;6198421;23;20414;-80
2022/01/07 16:22:53;;;;;;;1999.90;653.67;;;3.80;99.90;;;;;;6195417;23;20518;-81
2022/01/07 16:25:23;;;;;;;1999.90;668.63;;;3.80;99.90;;;;;;6221990;23;20921;-80
2022/01/07 16:27:51;;;;;;;1999.90;595.27;;;3.70;99.90;;;;;;6222941;23;20416;-80
2022/01/07 16:30:19;;;;;;;1999.90;683.60;;;3.70;99.90;;;;;;6222608;23;20434;-81
2022/01/07 16:32:48;;;;;;;1999.90;664.37;;;3.70;99.90;;;;;;6232073;23;20403;-80
2022/01/07 16:35:16;;;;;;;1999.90;611.43;;;3.70;99.90;;;;;;6195694;23;20912;-80
2022/01/07 16:37:45;;;;;;;1999.90;670.87;;;3.70;99.90;;;;;;6196353;23;20896;-80
2022/01/07 16:40:15;;;;;;;1999.90;653.20;;;3.70;99.90;;;;;;6232946;23;20488;-80
2022/01/07 16:42:45;;;;;;;1999.90;652.57;;;3.70;99.90;;;;;;6196182;23;20760;-80
2022/01/07 16:45:16;;;;;;;1999.90;671.13;;;3.70;99.90;;;;;;6196497;23;20437;-80
2022/01/07 16:47:44;;;;;;;1999.90;691.57;;;3.70;99.90;;;;;;6196085;23;20416;-80
2022/01/07 16:50:13;;;;;;;1999.90;656.10;;;3.70;99.90;;;;;;6223980;23;20411;-80
2022/01/07 16:52:42;;;;;;;88.07;70.17;;;3.60;99.90;;;;;;6193235;23;20452;-79
2022/01/07 16:55:16;;;;;;;412.33;99.57;;;3.70;99.90;;;;;;6221559;23;20414;-80
2022/01/07 16:57:46;;;;;;;1999.90;638.17;;;3.70;99.90;;;;;;6195578;23;20416;-80
2022/01/07 17:00:16;;;;;;;1999.90;605.73;;;3.70;99.90;;;;;;6230972;23;20907;-80
2022/01/07 17:02:44;;;;;;;1999.90;999.90;;;3.60;99.90;;;;;;6194404;23;20905;-80
2022/01/07 17:05:13;;;;;;;1999.90;695.40;;;3.60;99.90;;;;;;6212467;23;20442;-80
2022/01/07 17:07:41;;;;;;;1999.90;682.47;;;3.60;99.90;;;;;;6220946;23;20793;-80
2022/01/07 17:10:10;;;;;;;1999.90;734.67;;;3.60;99.90;;;;;;6219485;23;20415;-80
2022/01/07 17:12:38;;;;;;;1999.90;673.87;;;3.60;99.90;;;;;;6219415;23;20474;-80
2022/01/07 17:15:10;;;;;;;1999.90;619.53;;;3.60;99.90;;;;;;6218794;23;20416;-80
2022/01/07 17:17:39;;;;;;;1999.90;706.90;;;3.50;99.90;;;;;;6222537;23;20403;-80
2022/01/07 17:20:09;;;;;;;1999.90;737.10;;;3.50;99.90;;;;;;6223687;23;20449;-80
2022/01/07 17:22:38;;;;;;;1999.90;712.63;;;3.50;99.90;;;;;;6223407;23;20403;-79
2022/01/07 17:25:08;;;;;;;1999.90;650.47;;;3.50;99.90;;;;;;6223952;23;20399;-80
2022/01/07 17:27:37;;;;;;;1999.90;712.33;;;3.50;99.90;;;;;;6222987;23;20402;-80
2022/01/07 17:30:09;;;;;;;1999.90;674.63;;;3.50;99.90;;;;;;6222918;23;20531;-80
2022/01/07 17:32:37;;;;;;;1999.90;710.27;;;3.50;99.90;;;;;;6224195;23;20459;-80
2022/01/07 17:35:06;;;;;;;1999.90;662.53;;;3.50;99.90;;;;;;6224961;23;20454;-80
2022/01/07 17:37:35;;;;;;;1999.90;633.23;;;3.50;99.90;;;;;;6222745;23;20421;-80
2022/01/07 17:40:05;;;;;;;1999.90;560.70;;;3.50;99.90;;;;;;6224694;23;20814;-80
2022/01/07 17:42:34;;;;;;;1999.90;541.63;;;3.50;99.90;;;;;;6224596;23;20413;-80
2022/01/07 17:45:04;;;;;;;1999.90;557.87;;;3.50;99.90;;;;;;6224055;23;20531;-80
2022/01/07 17:47:33;;;;;;;1999.90;706.53;;;3.50;99.90;;;;;;6223856;23;20449;-80
2022/01/07 17:50:08;;;;;;;1999.90;604.00;;;3.50;99.90;;;;;;6236194;23;20385;-80
2022/01/07 17:52:36;;;;;;;1999.90;667.27;;;3.50;99.90;;;;;;6221138;23;20450;-79
2022/01/07 17:55:06;;;;;;;1999.90;707.10;;;3.50;99.90;;;;;;6219467;23;20445;-79
2022/01/07 17:57:38;;;;;;;1999.90;575.57;;;3.50;99.90;;;;;;6218859;23;20751;-80
2022/01/07 18:00:09;;;;;;;1999.90;593.47;;;3.50;99.90;;;;;;6219428;23;20425;-80
2022/01/07 18:02:41;;;;;;;1999.90;689.67;;;3.50;99.90;;;;;;6220888;23;20415;-80
2022/01/07 18:05:10;;;;;;;1999.90;598.37;;;3.50;99.90;;;;;;6220174;23;20448;-79
2022/01/07 18:07:38;;;;;;;1999.90;629.90;;;3.50;99.90;;;;;;6221013;23;20884;-80
2022/01/07 18:10:07;;;;;;;1999.90;568.03;;;3.50;99.90;;;;;;6219967;23;20422;-79
2022/01/07 18:12:36;;;;;;;1999.90;540.63;;;3.50;99.90;;;;;;6219931;23;20852;-80
2022/01/07 18:15:06;;;;;;;1999.90;552.87;;;3.50;99.90;;;;;;6220317;23;20504;-79
2022/01/07 18:17:34;;;;;;;1999.90;649.20;;;3.50;99.90;;;;;;6220140;23;20440;-79
2022/01/07 18:20:07;;;;;;;1999.90;560.27;;;3.50;99.90;;;;;;6220839;23;20884;-80
2022/01/07 18:22:35;;;;;;;1999.90;621.13;;;3.50;99.90;;;;;;6222756;23;20413;-80
2022/01/07 18:25:09;;;;;;;1999.90;690.13;;;3.50;99.90;;;;;;6220882;23;20429;-79
2022/01/07 18:27:58;;;;;;;1999.90;630.50;;;3.50;99.90;;;;;;6219875;23;20406;-80
2022/01/07 18:30:26;;;;;;;1999.90;668.77;;;3.60;99.90;;;;;;6219605;23;20416;-80
2022/01/07 18:32:54;;;;;;;1999.90;549.17;;;3.50;99.90;;;;;;6221996;23;20461;-79
2022/01/07 18:35:37;;;;;;;1999.90;489.07;;;3.60;99.90;;;;;;6222384;23;20518;-79
2022/01/07 18:38:05;;;;;;;1999.90;616.20;;;3.60;99.90;;;;;;6220756;23;20404;-79
2022/01/07 18:40:33;;;;;;;1999.90;539.67;;;3.60;99.90;;;;;;6218627;23;20894;-79
2022/01/07 18:43:05;;;;;;;1999.90;480.13;;;3.60;99.90;;;;;;6219764;23;20428;-79
2022/01/07 18:45:33;;;;;;;1999.90;553.50;;;3.60;99.90;;;;;;6218587;23;20418;-79
2022/01/07 18:48:02;;;;;;;1999.90;580.13;;;3.60;99.90;;;;;;6219188;23;20432;-79
2022/01/07 18:50:30;;;;;;;1999.90;641.77;;;3.60;99.90;;;;;;6220829;23;20413;-79
2022/01/07 18:53:00;;;;;;;1927.47;440.43;;;3.60;99.90;;;;;;6218923;23;20850;-78
2022/01/07 18:55:30;;;;;;;1999.90;596.47;;;3.60;99.90;;;;;;6218928;23;20406;-80
2022/01/07 18:57:58;;;;;;;1999.90;475.87;;;3.60;99.90;;;;;;6219078;23;20414;-79
2022/01/07 19:00:26;;;;;;;1999.90;522.20;;;3.60;99.90;;;;;;6221052;23;20486;-79
2022/01/07 19:02:54;;;;;;;1999.90;516.90;;;3.60;99.90;;;;;;6221576;23;20790;-79
2022/01/07 19:05:23;;;;;;;1999.90;694.30;;;3.60;99.90;;;;;;6220490;23;20714;-79
2022/01/07 19:07:51;;;;;;;1999.90;721.13;;;3.70;99.90;;;;;;6193348;23;20840;-79
2022/01/07 19:10:23;;;;;;;1999.90;541.80;;;3.70;99.90;;;;;;6193696;23;20452;-79
2022/01/07 19:12:51;;;;;;;1999.90;713.57;;;3.70;99.90;;;;;;6219746;23;20464;-79
2022/01/07 19:15:19;;;;;;;1999.90;713.07;;;3.70;99.90;;;;;;6193100;23;20414;-79
2022/01/07 19:17:47;;;;;;;1999.90;598.50;;;3.70;99.90;;;;;;6231383;23;20425;-79
2022/01/07 19:20:15;;;;;;;1999.90;717.90;;;3.70;99.90;;;;;;6196917;23;20508;-80
2022/01/07 19:22:45;;;;;;;1999.90;678.30;;;3.70;99.90;;;;;;6195171;23;20423;-79
2022/01/07 19:25:14;;;;;;;1999.90;691.37;;;3.70;99.90;;;;;;6195591;23;20415;-79
2022/01/07 19:27:43;;;;;;;1999.90;684.53;;;3.70;99.90;;;;;;6222257;23;20510;-79
2022/01/07 19:30:12;;;;;;;1999.90;635.90;;;3.70;99.90;;;;;;6196173;23;20444;-80
2022/01/07 19:32:40;;;;;;;1999.90;593.33;;;3.70;99.90;;;;;;6195988;23;20425;-79
2022/01/07 19:35:09;;;;;;;1999.90;617.53;;;3.70;99.90;;;;;;6196338;23;20407;-79
2022/01/07 19:37:37;;;;;;;1999.90;583.87;;;3.70;99.90;;;;;;6195737;23;20432;-80
2022/01/07 19:40:06;;;;;;;1999.90;483.77;;;3.70;99.90;;;;;;6196647;23;20448;-80
2022/01/07 19:42:34;;;;;;;1999.90;606.43;;;3.70;99.90;;;;;;6222212;23;20431;-80
2022/01/07 19:45:05;;;;;;;1999.90;908.13;;;3.80;99.90;;;;;;6195782;23;20445;-80
2022/01/07 19:47:33;;;;;;;1999.90;564.73;;;3.70;99.90;;;;;;6232244;23;20509;-79
2022/01/07 19:50:01;;;;;;;1999.90;490.97;;;3.70;99.90;;;;;;6194777;23;20496;-80
2022/01/07 19:52:30;;;;;;;1999.90;846.13;;;3.70;99.90;;;;;;6196138;23;20500;-80